createdAt,value
2018-11-28T00:00:46.578Z,42.37
2018-11-28T00:03:14.928Z,40.10
2018-11-28T00:05:43.266Z,40.03
2018-11-28T00:08:11.590Z,35.37
2018-11-28T00:10:39.908Z,36.70
2018-11-28T00:13:09.006Z,39.83
2018-11-28T00:15:37.973Z,38.07
2018-11-28T00:18:06.334Z,38.67
2018-11-28T00:20:34.666Z,38.13
2018-11-28T00:23:02.984Z,36.10
2018-11-28T00:25:31.306Z,38.10
2018-11-28T00:27:59.621Z,34.93
2018-11-28T00:30:27.955Z,39.17
2018-11-28T00:32:56.274Z,40.03
2018-11-28T00:35:25.531Z,41.07
2018-11-28T00:37:53.850Z,36.17
2018-11-28T00:40:23.134Z,38.73
2018-11-28T00:42:51.613Z,37.60
2018-11-28T00:45:21.589Z,34.80
2018-11-28T00:47:49.952Z,36.73
2018-11-28T00:50:26.070Z,36.87
2018-11-28T00:52:54.554Z,35.50
2018-11-28T00:55:22.956Z,37.30
2018-11-28T00:57:51.281Z,35.60
2018-11-28T01:00:23.044Z,38.00
2018-11-28T01:02:51.512Z,34.13
2018-11-28T01:05:19.904Z,36.50
2018-11-28T01:07:50.375Z,35.37
2018-11-28T01:10:19.798Z,34.10
2018-11-28T01:12:49.092Z,38.10
2018-11-28T01:15:18.350Z,35.10
2018-11-28T01:17:47.029Z,34.07
2018-11-28T01:20:17.294Z,38.67
2018-11-28T01:22:45.667Z,35.03
2018-11-28T01:25:15.035Z,35.97
2018-11-28T01:27:43.365Z,34.03
2018-11-28T01:30:17.577Z,36.33
2018-11-28T01:32:46.141Z,35.37
2018-11-28T01:35:15.268Z,37.60
2018-11-28T01:37:43.803Z,37.70
2018-11-28T01:40:18.307Z,34.67
2018-11-28T01:42:46.679Z,33.90
2018-11-28T01:45:19.483Z,33.03
2018-11-28T01:47:47.917Z,32.40
2018-11-28T01:50:17.155Z,35.77
2018-11-28T01:52:45.545Z,31.03
2018-11-28T01:55:15.077Z,36.33
2018-11-28T01:57:43.453Z,31.10
2018-11-28T02:00:24.577Z,37.03
2018-11-28T02:02:55.953Z,34.27
2018-11-28T02:05:25.245Z,36.63
2018-11-28T02:07:53.557Z,34.03
2018-11-28T02:10:21.916Z,31.93
2018-11-28T02:12:50.409Z,33.80
2018-11-28T02:15:20.501Z,34.73
2018-11-28T02:17:49.183Z,32.93
2018-11-28T02:20:18.191Z,35.03
2018-11-28T02:22:46.672Z,33.47
2018-11-28T02:25:15.891Z,37.00
2018-11-28T02:27:44.348Z,37.37
2018-11-28T02:30:15.694Z,32.77
2018-11-28T02:32:44.467Z,31.53
2018-11-28T02:35:13.740Z,33.23
2018-11-28T02:37:42.175Z,32.37
2018-11-28T02:40:15.489Z,32.03
2018-11-28T02:42:44.156Z,35.30
2018-11-28T02:45:15.319Z,33.20
2018-11-28T02:47:43.712Z,35.00
2018-11-28T02:50:12.123Z,34.03
2018-11-28T02:52:40.512Z,35.03
2018-11-28T02:55:10.870Z,33.23
2018-11-28T02:57:39.609Z,36.13
2018-11-28T03:00:16.614Z,31.53
2018-11-28T03:02:44.946Z,33.03
2018-11-28T03:05:13.688Z,30.20
2018-11-28T03:07:48.707Z,31.70
2018-11-28T03:10:19.931Z,32.33
2018-11-28T03:12:48.325Z,32.70
2018-11-28T03:15:27.207Z,34.70
2018-11-28T03:17:56.755Z,32.50
2018-11-28T03:20:25.318Z,31.63
2018-11-28T03:22:53.659Z,32.93
2018-11-28T03:25:21.998Z,33.77
2018-11-28T03:27:50.349Z,32.23
2018-11-28T03:30:18.682Z,31.90
2018-11-28T03:32:47.028Z,30.23
2018-11-28T03:35:16.057Z,29.80
2018-11-28T03:37:44.782Z,29.77
2018-11-28T03:40:13.369Z,30.87
2018-11-28T03:42:41.948Z,30.63
2018-11-28T03:45:13.340Z,31.13
2018-11-28T03:47:42.241Z,31.87
2018-11-28T03:50:11.613Z,29.37
2018-11-28T03:52:40.204Z,28.57
2018-11-28T03:55:10.984Z,31.50
2018-11-28T03:57:39.330Z,29.83
2018-11-28T04:00:12.105Z,29.97
2018-11-28T04:02:40.438Z,30.10
2018-11-28T04:05:08.890Z,27.30
2018-11-28T04:07:37.202Z,30.97
2018-11-28T04:10:07.766Z,30.83
2018-11-28T04:12:36.080Z,29.10
2018-11-28T04:15:06.152Z,30.13
2018-11-28T04:17:34.510Z,33.27
2018-11-28T04:20:03.110Z,30.87
2018-11-28T04:22:31.428Z,28.93
2018-11-28T04:24:59.752Z,28.03
2018-11-28T04:27:28.090Z,28.73
2018-11-28T04:29:56.430Z,30.70
2018-11-28T04:32:24.757Z,31.60
2018-11-28T04:34:53.099Z,28.17
2018-11-28T04:37:21.442Z,28.50
2018-11-28T04:39:49.868Z,28.20
2018-11-28T04:42:18.228Z,28.27
2018-11-28T04:44:46.648Z,28.63
2018-11-28T04:47:14.973Z,28.60
2018-11-28T04:49:43.964Z,28.43
2018-11-28T04:52:12.297Z,27.27
2018-11-28T04:54:40.648Z,25.27
2018-11-28T04:57:08.962Z,30.43
2018-11-28T04:59:38.293Z,27.47
2018-11-28T05:02:06.625Z,28.90
2018-11-28T05:04:34.976Z,31.70
2018-11-28T05:07:33.821Z,23.53
2018-11-28T05:10:02.156Z,26.77
2018-11-28T05:12:30.535Z,25.33
2018-11-28T05:14:58.894Z,25.67
2018-11-28T05:17:27.221Z,25.30
2018-11-28T05:19:55.701Z,28.17
2018-11-28T05:22:24.275Z,27.50
2018-11-28T05:24:52.693Z,24.80
2018-11-28T05:27:21.067Z,25.20
2018-11-28T05:29:49.589Z,23.67
2018-11-28T05:32:17.929Z,22.70
2018-11-28T05:34:46.817Z,21.73
2018-11-28T05:37:15.754Z,22.27
2018-11-28T05:39:44.183Z,19.30
2018-11-28T05:42:12.542Z,22.00
2018-11-28T05:44:40.868Z,22.03
2018-11-28T05:47:09.187Z,19.47
2018-11-28T05:49:37.520Z,20.13
2018-11-28T05:52:06.027Z,18.73
2018-11-28T05:54:34.384Z,22.07
2018-11-28T05:57:02.710Z,19.43
2018-11-28T05:59:31.044Z,17.93
2018-11-28T06:01:59.390Z,19.57
2018-11-28T06:04:27.748Z,21.53
2018-11-28T06:06:56.364Z,19.03
2018-11-28T06:09:24.686Z,19.50
2018-11-28T06:11:53.005Z,19.17
2018-11-28T06:14:21.328Z,17.97
2018-11-28T06:16:49.712Z,17.87
2018-11-28T06:19:18.022Z,18.03
2018-11-28T06:21:46.350Z,17.03
2018-11-28T06:24:15.024Z,20.53
2018-11-28T06:26:43.396Z,19.50
2018-11-28T06:29:11.718Z,18.90
2018-11-28T06:31:40.151Z,17.77
2018-11-28T06:34:08.481Z,18.47
2018-11-28T06:36:36.821Z,18.03
2018-11-28T06:39:08.165Z,19.20
2018-11-28T06:41:36.825Z,17.87
2018-11-28T06:44:05.200Z,17.97
2018-11-28T06:46:33.570Z,17.83
2018-11-28T06:49:01.895Z,19.90
2018-11-28T06:51:30.334Z,19.03
2018-11-28T06:53:58.721Z,20.43
2018-11-28T06:56:27.057Z,20.30
2018-11-28T06:58:55.456Z,21.37
2018-11-28T07:01:23.756Z,20.93
2018-11-28T07:03:52.069Z,18.73
2018-11-28T07:06:20.421Z,19.20
2018-11-28T07:08:48.769Z,18.17
2018-11-28T07:11:17.123Z,17.90
2018-11-28T07:13:45.463Z,18.50
2018-11-28T07:16:13.823Z,18.47
2018-11-28T07:18:53.507Z,19.33
2018-11-28T07:21:22.427Z,19.17
2018-11-28T07:23:50.740Z,17.77
2018-11-28T07:26:19.371Z,17.73
2018-11-28T07:28:47.744Z,16.33
2018-11-28T07:31:16.103Z,18.47
2018-11-28T07:33:44.429Z,17.73
2018-11-28T07:36:12.782Z,17.83
2018-11-28T07:38:41.113Z,20.07
2018-11-28T07:41:09.570Z,21.13
2018-11-28T07:43:38.508Z,18.93
2018-11-28T07:46:07.358Z,17.30
2018-11-28T07:48:42.163Z,17.43
2018-11-28T07:51:10.514Z,18.83
2018-11-28T07:53:38.871Z,18.97
2018-11-28T07:56:07.198Z,20.03
2018-11-28T07:58:35.518Z,19.97
2018-11-28T08:01:03.925Z,20.40
2018-11-28T08:03:32.256Z,18.33
2018-11-28T08:06:00.642Z,18.37
2018-11-28T08:08:29.078Z,19.70
2018-11-28T08:10:57.480Z,17.97
2018-11-28T08:13:26.419Z,18.77
2018-11-28T08:15:54.159Z,17.93
2018-11-28T08:18:22.488Z,20.10
2018-11-28T08:20:51.012Z,18.73
2018-11-28T08:23:19.346Z,18.23
2018-11-28T08:25:47.707Z,16.97
2018-11-28T08:28:16.187Z,16.27
2018-11-28T08:30:44.684Z,18.63
2018-11-28T08:33:13.573Z,18.73
2018-11-28T08:35:41.936Z,18.97
2018-11-28T08:38:10.249Z,17.10
2018-11-28T08:40:38.804Z,17.00
2018-11-28T08:43:07.215Z,16.07
2018-11-28T08:45:36.269Z,16.97
2018-11-28T08:48:04.573Z,17.57
2018-11-28T08:50:35.193Z,17.33
2018-11-28T08:53:03.534Z,17.13
2018-11-28T08:55:31.948Z,17.57
2018-11-28T08:58:00.283Z,16.97
2018-11-28T09:00:30.513Z,16.40
2018-11-28T09:02:59.241Z,17.70
2018-11-28T09:05:27.578Z,16.60
2018-11-28T09:07:55.917Z,13.87
2018-11-28T09:10:24.303Z,14.80
2018-11-28T09:12:52.671Z,18.00
2018-11-28T09:15:27.642Z,18.27
2018-11-28T09:17:56.116Z,19.37
2018-11-28T09:20:24.454Z,18.00
2018-11-28T09:22:52.818Z,12.93
2018-11-28T09:25:21.451Z,17.17
2018-11-28T09:27:51.821Z,14.73
2018-11-28T09:30:20.550Z,17.00
2018-11-28T09:32:49.612Z,16.90
2018-11-28T09:35:18.379Z,15.40
2018-11-28T09:37:46.760Z,16.63
2018-11-28T09:40:17.039Z,14.40
2018-11-28T09:42:45.419Z,13.83
2018-11-28T09:45:14.712Z,16.07
2018-11-28T09:47:43.031Z,17.33
2018-11-28T09:50:18.211Z,14.03
2018-11-28T09:52:46.632Z,14.03
2018-11-28T09:55:15.935Z,15.30
2018-11-28T09:57:44.334Z,17.77
2018-11-28T10:00:19.707Z,13.20
2018-11-28T10:02:48.511Z,15.37
2018-11-28T10:05:20.737Z,15.07
2018-11-28T10:07:49.091Z,14.60
2018-11-28T10:10:17.493Z,12.30
2018-11-28T10:12:45.816Z,15.83
2018-11-28T10:15:15.125Z,14.03
2018-11-28T10:17:43.553Z,15.53
2018-11-28T10:20:13.570Z,14.67
2018-11-28T10:22:42.103Z,12.83
2018-11-28T10:25:15.094Z,12.30
2018-11-28T10:27:44.326Z,13.60
2018-11-28T10:30:18.734Z,13.13
2018-11-28T10:32:47.691Z,14.13
2018-11-28T10:35:16.022Z,10.40
2018-11-28T10:37:44.342Z,15.07
2018-11-28T10:40:17.486Z,13.17
2018-11-28T10:42:46.607Z,10.83
2018-11-28T10:45:16.063Z,10.50
2018-11-28T10:47:44.412Z,11.20
2018-11-28T10:50:13.768Z,11.27
2018-11-28T10:52:42.173Z,10.43
2018-11-28T10:55:14.521Z,10.27
2018-11-28T10:57:42.913Z,10.13
2018-11-28T11:00:25.137Z,11.37
2018-11-28T11:02:58.871Z,9.30
2018-11-28T11:05:32.539Z,9.93
2018-11-28T11:08:06.204Z,10.67
2018-11-28T11:10:39.897Z,9.00
2018-11-28T11:13:13.596Z,9.23
2018-11-28T11:15:42.059Z,9.60
2018-11-28T11:18:11.412Z,6.73
2018-11-28T11:20:39.809Z,9.90
2018-11-28T11:23:11.637Z,9.17
2018-11-28T11:25:39.993Z,8.17
2018-11-28T11:28:08.351Z,9.07
2018-11-28T11:30:36.735Z,8.00
2018-11-28T11:33:05.685Z,7.70
2018-11-28T11:35:34.056Z,7.43
2018-11-28T11:38:02.372Z,7.00
2018-11-28T11:40:30.698Z,8.50
2018-11-28T11:42:59.103Z,6.90
2018-11-28T11:45:27.446Z,6.77
2018-11-28T11:47:55.788Z,6.90
2018-11-28T11:50:24.130Z,8.20
2018-11-28T11:52:52.513Z,6.67
2018-11-28T11:55:20.873Z,6.47
2018-11-28T11:57:49.639Z,7.77
2018-11-28T12:00:21.819Z,5.50
2018-11-28T12:02:57.128Z,6.03
2018-11-28T12:05:25.484Z,6.83
2018-11-28T12:07:53.854Z,6.13
2018-11-28T12:10:22.222Z,6.83
2018-11-28T12:12:51.787Z,5.97
2018-11-28T12:15:18.972Z,6.30
2018-11-28T12:17:48.198Z,7.27
2018-11-28T12:20:25.458Z,5.27
2018-11-28T12:22:53.841Z,5.60
2018-11-28T12:25:22.214Z,6.77
2018-11-28T12:27:50.582Z,5.07
2018-11-28T12:30:18.944Z,5.47
2018-11-28T12:32:47.282Z,5.07
2018-11-28T12:35:17.311Z,5.93
2018-11-28T12:37:45.645Z,6.47
2018-11-28T12:40:14.768Z,5.87
2018-11-28T12:42:44.716Z,6.47
2018-11-28T12:45:15.870Z,5.83
2018-11-28T12:47:45.314Z,6.20
2018-11-28T12:50:23.351Z,5.57
2018-11-28T12:52:52.562Z,8.57
2018-11-28T12:55:21.235Z,5.13
2018-11-28T12:57:50.070Z,4.97
2018-11-28T13:00:21.186Z,5.30
2018-11-28T13:02:49.638Z,4.60
2018-11-28T13:05:19.881Z,5.90
2018-11-28T13:07:48.394Z,5.13
2018-11-28T13:10:18.822Z,4.80
2018-11-28T13:12:47.834Z,6.40
2018-11-28T13:15:17.240Z,5.73
2018-11-28T13:17:45.575Z,3.57
2018-11-28T13:20:15.602Z,7.40
2018-11-28T13:22:44.506Z,5.37
2018-11-28T13:25:13.946Z,4.57
2018-11-28T13:27:42.439Z,4.77
2018-11-28T13:30:14.050Z,7.33
2018-11-28T13:32:42.818Z,4.73
2018-11-28T13:35:12.061Z,5.17
2018-11-28T13:37:40.667Z,5.83
2018-11-28T13:40:11.155Z,4.57
2018-11-28T13:42:39.521Z,4.50
2018-11-28T13:45:11.014Z,5.37
2018-11-28T13:47:39.366Z,5.67
2018-11-28T13:50:10.355Z,4.70
2018-11-28T13:52:38.777Z,4.37
2018-11-28T13:57:45.428Z,4.73
2018-11-28T14:00:20.136Z,4.23
2018-11-28T14:02:48.700Z,3.40
2018-11-28T14:05:17.058Z,4.03
2018-11-28T14:07:45.456Z,4.43
2018-11-28T14:10:15.421Z,4.53
2018-11-28T14:12:43.783Z,4.27
2018-11-28T14:15:14.776Z,3.60
2018-11-28T14:17:44.637Z,5.67
2018-11-28T14:20:12.974Z,4.90
2018-11-28T14:22:41.391Z,5.40
2018-11-28T14:25:12.043Z,4.43
2018-11-28T14:27:40.569Z,4.10
2018-11-28T14:30:14.316Z,5.90
2018-11-28T14:32:42.687Z,5.17
2018-11-28T14:35:11.611Z,3.80
2018-11-28T14:37:40.224Z,4.30
2018-11-28T14:40:10.894Z,5.23
2018-11-28T14:42:39.238Z,5.47
2018-11-28T14:45:11.150Z,5.97
2018-11-28T14:47:39.646Z,5.10
2018-11-28T14:50:12.207Z,5.97
2018-11-28T14:52:40.574Z,7.27
2018-11-28T14:55:14.804Z,4.77
2018-11-28T14:57:43.308Z,5.40
2018-11-28T15:00:24.527Z,4.87
2018-11-28T15:03:00.126Z,7.13
2018-11-28T15:05:36.139Z,6.43
2018-11-28T15:08:09.292Z,5.50
2018-11-28T15:10:45.865Z,5.57
2018-11-28T15:13:14.242Z,6.27
2018-11-28T15:15:42.634Z,6.57
2018-11-28T15:18:11.069Z,6.37
2018-11-28T15:20:45.956Z,8.97
2018-11-28T15:23:14.590Z,10.30
2018-11-28T15:25:43.110Z,6.67
2018-11-28T15:28:11.987Z,6.67
2018-11-28T15:30:40.373Z,7.23
2018-11-28T15:33:08.823Z,11.20
2018-11-28T15:35:37.475Z,8.40
2018-11-28T15:38:06.037Z,8.33
2018-11-28T15:40:34.461Z,9.50
2018-11-28T15:45:37.579Z,7.00
2018-11-28T15:48:06.344Z,11.80
2018-11-28T15:50:34.963Z,7.83
2018-11-28T15:53:03.298Z,9.03
2018-11-28T15:55:31.660Z,12.97
2018-11-28T15:58:00.154Z,11.60
2018-11-28T16:00:28.875Z,11.53
2018-11-28T16:02:57.307Z,11.60
2018-11-28T16:05:25.934Z,11.20
2018-11-28T16:07:54.337Z,14.97
2018-11-28T16:10:28.163Z,12.43
2018-11-28T16:12:56.590Z,13.40
2018-11-28T16:15:30.709Z,12.40
2018-11-28T16:17:59.095Z,15.57
2018-11-28T16:20:27.478Z,15.77
2018-11-28T16:23:04.075Z,16.87
2018-11-28T16:25:24.472Z,15.37
2018-11-28T16:27:52.857Z,13.17
2018-11-28T16:30:21.469Z,13.73
2018-11-28T16:32:49.943Z,14.23
2018-11-28T16:35:18.496Z,17.73
2018-11-28T16:37:47.747Z,14.07
2018-11-28T16:40:16.445Z,13.47
2018-11-28T16:42:44.877Z,12.80
2018-11-28T16:45:17.278Z,15.13
2018-11-28T16:47:45.771Z,12.97
2018-11-28T16:50:14.736Z,18.37
2018-11-28T16:52:43.307Z,13.03
2018-11-28T16:55:13.328Z,13.83
2018-11-28T16:57:42.856Z,11.93
2018-11-28T17:00:20.315Z,14.30
2018-11-28T17:02:48.705Z,10.03
2018-11-28T17:05:19.244Z,12.07
2018-11-28T17:07:47.928Z,13.00
2018-11-28T17:10:20.398Z,12.63
2018-11-28T17:12:49.810Z,11.93
2018-11-28T17:15:18.937Z,14.73
2018-11-28T17:17:47.365Z,15.20
2018-11-28T17:20:19.914Z,13.33
2018-11-28T17:22:48.942Z,13.43
2018-11-28T17:25:22.517Z,12.87
2018-11-28T17:27:50.980Z,11.93
2018-11-28T17:30:20.776Z,13.80
2018-11-28T17:32:49.373Z,12.63
2018-11-28T17:35:17.766Z,12.90
2018-11-28T17:37:46.172Z,13.50
2018-11-28T17:40:18.681Z,12.00
2018-11-28T17:42:48.338Z,11.90
2018-11-28T17:45:17.349Z,10.13
2018-11-28T17:47:46.004Z,11.33
2018-11-28T17:50:21.948Z,10.60
2018-11-28T17:52:59.426Z,10.63
2018-11-28T17:55:28.882Z,10.03
2018-11-28T17:57:57.247Z,10.10
2018-11-28T18:00:27.232Z,9.20
2018-11-28T18:02:55.718Z,12.07
2018-11-28T18:05:24.948Z,13.20
2018-11-28T18:07:53.630Z,10.37
2018-11-28T18:10:22.522Z,11.87
2018-11-28T18:13:02.654Z,11.37
2018-11-28T18:15:31.074Z,11.13
2018-11-28T18:17:59.628Z,11.83
2018-11-28T18:20:29.460Z,11.40
2018-11-28T18:22:57.962Z,10.40
2018-11-28T18:25:27.782Z,10.07
2018-11-28T18:27:56.378Z,11.50
2018-11-28T18:30:24.910Z,12.10
2018-11-28T18:32:53.387Z,10.77
2018-11-28T18:35:22.015Z,12.23
2018-11-28T18:37:50.745Z,10.47
2018-11-28T18:40:19.260Z,10.57
2018-11-28T18:42:48.511Z,10.97
2018-11-28T18:45:18.507Z,13.33
2018-11-28T18:47:47.491Z,10.93
2018-11-28T18:50:16.977Z,12.13
2018-11-28T18:52:45.380Z,11.67
2018-11-28T18:55:18.908Z,12.83
2018-11-28T18:57:51.496Z,15.00
2018-11-28T19:00:22.158Z,15.37
2018-11-28T19:02:50.788Z,14.60
2018-11-28T19:05:19.225Z,12.47
2018-11-28T19:07:47.763Z,13.37
2018-11-28T19:10:19.075Z,14.47
2018-11-28T19:12:47.460Z,12.07
2018-11-28T19:15:16.996Z,13.03
2018-11-28T19:17:46.025Z,13.00
2018-11-28T19:20:17.265Z,14.40
2018-11-28T19:22:46.358Z,11.33
2018-11-28T19:25:15.758Z,12.80
2018-11-28T19:27:44.418Z,13.67
2018-11-28T19:30:22.164Z,13.37
2018-11-28T19:32:50.583Z,11.10
2018-11-28T19:35:18.955Z,12.13
2018-11-28T19:37:47.659Z,12.27
2018-11-28T19:40:20.434Z,14.43
2018-11-28T19:42:48.893Z,13.83
2018-11-28T19:45:17.256Z,14.30
2018-11-28T19:47:45.589Z,12.67
2018-11-28T19:50:15.682Z,14.37
2018-11-28T19:52:44.164Z,12.90
2018-11-28T19:55:12.557Z,14.37
2018-11-28T19:57:41.377Z,13.93
2018-11-28T20:00:14.733Z,14.70
2018-11-28T20:02:43.398Z,12.17
2018-11-28T20:05:11.908Z,12.97
2018-11-28T20:07:41.160Z,11.77
2018-11-28T20:10:12.971Z,13.83
2018-11-28T20:12:41.381Z,16.33
2018-11-28T20:15:15.090Z,13.67
2018-11-28T20:17:43.434Z,14.43
2018-11-28T20:20:12.954Z,14.33
2018-11-28T20:22:41.650Z,15.60
2018-11-28T20:25:13.510Z,13.43
2018-11-28T20:27:42.650Z,14.97
2018-11-28T20:30:17.718Z,12.47
2018-11-28T20:32:47.180Z,14.17
2018-11-28T20:35:16.315Z,13.87
2018-11-28T20:37:45.513Z,14.13
2018-11-28T20:40:15.314Z,16.57
2018-11-28T20:42:51.723Z,15.67
2018-11-28T20:45:20.253Z,14.10
2018-11-28T20:47:48.660Z,13.77
2018-11-28T20:50:33.124Z,12.07
2018-11-28T20:53:06.980Z,13.10
2018-11-28T20:55:35.508Z,12.00
2018-11-28T20:58:03.886Z,13.47
2018-11-28T21:00:32.289Z,15.20
2018-11-28T21:03:00.802Z,12.90
2018-11-28T21:05:29.184Z,11.53
2018-11-28T21:07:57.628Z,15.37
2018-11-28T21:10:31.413Z,12.10
2018-11-28T21:12:59.900Z,13.80
2018-11-28T21:15:28.153Z,13.17
2018-11-28T21:17:56.569Z,11.07
2018-11-28T21:20:25.202Z,11.43
2018-11-28T21:22:55.644Z,12.70
2018-11-28T21:25:24.219Z,13.67
2018-11-28T21:27:52.538Z,11.90
2018-11-28T21:30:21.373Z,12.83
2018-11-28T21:32:52.867Z,12.37
2018-11-28T21:35:26.818Z,14.30
2018-11-28T21:37:55.401Z,11.93
2018-11-28T21:40:24.459Z,10.97
2018-11-28T21:42:52.878Z,14.10
2018-11-28T21:45:22.282Z,9.77
2018-11-28T21:47:50.771Z,14.50
2018-11-28T21:50:19.702Z,10.70
2018-11-28T21:52:48.987Z,11.83
2018-11-28T21:55:20.372Z,11.93
2018-11-28T21:57:48.742Z,13.47
2018-11-28T22:00:21.419Z,10.67
2018-11-28T22:02:49.790Z,10.70
2018-11-28T22:05:18.271Z,11.40
2018-11-28T22:07:46.706Z,10.63
2018-11-28T22:10:16.040Z,11.33
2018-11-28T22:12:44.462Z,11.27
2018-11-28T22:15:14.027Z,10.30
2018-11-28T22:17:43.600Z,11.17
2018-11-28T22:20:12.784Z,9.83
2018-11-28T22:22:41.376Z,12.03
2018-11-28T22:25:15.290Z,11.43
2018-11-28T22:27:43.306Z,11.20
2018-11-28T22:30:12.896Z,7.93
2018-11-28T22:32:41.565Z,15.40
2018-11-28T22:35:10.124Z,10.23
2018-11-28T22:37:38.648Z,9.57
2018-11-28T22:40:24.921Z,11.10
2018-11-28T22:42:53.255Z,10.20
2018-11-28T22:45:22.815Z,8.23
2018-11-28T22:47:51.242Z,9.73
2018-11-28T22:50:19.839Z,9.00
2018-11-28T22:52:48.318Z,10.63
2018-11-28T22:55:17.254Z,11.10
2018-11-28T22:57:45.617Z,11.30
2018-11-28T23:00:25.100Z,8.37
2018-11-28T23:02:56.896Z,9.20
2018-11-28T23:05:27.234Z,10.63
2018-11-28T23:07:58.558Z,10.20
2018-11-28T23:10:26.908Z,8.90
2018-11-28T23:12:55.642Z,9.40
2018-11-28T23:15:24.174Z,10.00
2018-11-28T23:17:55.180Z,7.70
2018-11-28T23:20:21.288Z,8.90
2018-11-28T23:22:49.784Z,10.47
2018-11-28T23:25:18.171Z,11.13
2018-11-28T23:27:46.727Z,8.57
2018-11-28T23:30:22.421Z,7.77
2018-11-28T23:32:52.284Z,8.83
2018-11-28T23:35:20.668Z,10.27
2018-11-28T23:37:56.419Z,11.30
2018-11-28T23:40:25.889Z,9.97
2018-11-28T23:42:54.969Z,10.97
2018-11-28T23:45:24.321Z,9.03
2018-11-28T23:47:52.723Z,11.73
2018-11-28T23:50:22.035Z,9.33
2018-11-28T23:52:51.436Z,9.90
2018-11-28T23:55:28.067Z,10.53
2018-11-28T23:57:56.752Z,11.23
